sensor_id;sensor_type;location;lat;lon;timestamp;P1;durP1;ratioP1;P2;durP2;ratioP2
57087;SDS011;42965;52.846;6.614;2022-09-13T00:00:39;24.27;;;21.80;;
57087;SDS011;42965;52.846;6.614;2022-09-13T00:03:06;22.63;;;20.23;;
57087;SDS011;42965;52.846;6.614;2022-09-13T00:05:34;21.08;;;19.02;;
57087;SDS011;42965;52.846;6.614;2022-09-13T00:08:02;21.45;;;19.17;;
57087;SDS011;42965;52.846;6.614;2022-09-13T00:10:29;22.95;;;20.58;;
57087;SDS011;42965;52.846;6.614;2022-09-13T00:12:57;22.33;;;19.95;;
57087;SDS011;42965;52.846;6.614;2022-09-13T00:15:23;23.08;;;20.80;;
57087;SDS011;42965;52.846;6.614;2022-09-13T00:17:49;22.73;;;20.35;;
57087;SDS011;42965;52.846;6.614;2022-09-13T00:20:15;25.35;;;22.83;;
57087;SDS011;42965;52.846;6.614;2022-09-13T00:22:41;22.92;;;20.52;;
57087;SDS011;42965;52.846;6.614;2022-09-13T00:25:07;23.85;;;21.35;;
57087;SDS011;42965;52.846;6.614;2022-09-13T00:27:34;24.55;;;22.00;;
57087;SDS011;42965;52.846;6.614;2022-09-13T00:30:02;25.17;;;21.88;;
57087;SDS011;42965;52.846;6.614;2022-09-13T00:32:29;25.75;;;22.70;;
57087;SDS011;42965;52.846;6.614;2022-09-13T00:34:56;24.77;;;21.45;;
57087;SDS011;42965;52.846;6.614;2022-09-13T00:37:22;23.60;;;21.13;;
57087;SDS011;42965;52.846;6.614;2022-09-13T00:39:48;23.80;;;21.25;;
57087;SDS011;42965;52.846;6.614;2022-09-13T00:42:14;25.65;;;22.98;;
57087;SDS011;42965;52.846;6.614;2022-09-13T00:50:01;26.60;;;23.70;;
57087;SDS011;42965;52.846;6.614;2022-09-13T00:52:43;25.30;;;22.58;;
57087;SDS011;42965;52.846;6.614;2022-09-13T00:55:15;25.20;;;22.70;;
57087;SDS011;42965;52.846;6.614;2022-09-13T00:58:16;26.73;;;23.85;;
57087;SDS011;42965;52.846;6.614;2022-09-13T01:00:46;26.77;;;23.92;;
57087;SDS011;42965;52.846;6.614;2022-09-13T01:03:14;30.65;;;24.88;;
57087;SDS011;42965;52.846;6.614;2022-09-13T01:05:43;26.15;;;23.58;;
57087;SDS011;42965;52.846;6.614;2022-09-13T01:08:13;26.98;;;24.17;;
57087;SDS011;42965;52.846;6.614;2022-09-13T01:10:49;26.95;;;24.08;;
57087;SDS011;42965;52.846;6.614;2022-09-13T01:13:18;26.83;;;23.83;;
57087;SDS011;42965;52.846;6.614;2022-09-13T01:15:48;26.48;;;23.58;;
57087;SDS011;42965;52.846;6.614;2022-09-13T01:18:15;28.65;;;25.02;;
57087;SDS011;42965;52.846;6.614;2022-09-13T01:34:51;26.70;;;23.55;;
57087;SDS011;42965;52.846;6.614;2022-09-13T01:45:52;31.85;;;25.98;;
57087;SDS011;42965;52.846;6.614;2022-09-13T01:56:59;30.17;;;25.13;;
57087;SDS011;42965;52.846;6.614;2022-09-13T01:59:53;31.98;;;27.08;;
57087;SDS011;42965;52.846;6.614;2022-09-13T02:08:08;28.90;;;25.80;;
57087;SDS011;42965;52.846;6.614;2022-09-13T02:10:46;31.52;;;27.17;;
57087;SDS011;42965;52.846;6.614;2022-09-13T02:13:30;34.55;;;28.98;;
57087;SDS011;42965;52.846;6.614;2022-09-13T02:16:04;37.35;;;30.67;;
57087;SDS011;42965;52.846;6.614;2022-09-13T02:18:37;34.30;;;28.65;;
57087;SDS011;42965;52.846;6.614;2022-09-13T02:21:28;34.03;;;28.60;;
57087;SDS011;42965;52.846;6.614;2022-09-13T02:23:57;35.47;;;29.30;;
57087;SDS011;42965;52.846;6.614;2022-09-13T02:26:30;39.53;;;31.85;;
57087;SDS011;42965;52.846;6.614;2022-09-13T02:28:59;39.30;;;31.42;;
57087;SDS011;42965;52.846;6.614;2022-09-13T02:34:49;40.45;;;31.92;;
57087;SDS011;42965;52.846;6.614;2022-09-13T02:37:28;37.25;;;31.02;;
57087;SDS011;42965;52.846;6.614;2022-09-13T02:39:58;37.58;;;32.63;;
57087;SDS011;42965;52.846;6.614;2022-09-13T02:42:32;37.22;;;31.70;;
57087;SDS011;42965;52.846;6.614;2022-09-13T02:45:06;36.78;;;31.85;;
57087;SDS011;42965;52.846;6.614;2022-09-13T02:50:08;35.60;;;31.73;;
57087;SDS011;42965;52.846;6.614;2022-09-13T02:55:54;33.58;;;29.92;;
57087;SDS011;42965;52.846;6.614;2022-09-13T03:01:36;34.10;;;30.13;;
57087;SDS011;42965;52.846;6.614;2022-09-13T03:04:04;35.30;;;28.92;;
57087;SDS011;42965;52.846;6.614;2022-09-13T03:06:30;36.60;;;30.65;;
57087;SDS011;42965;52.846;6.614;2022-09-13T03:08:58;36.03;;;31.63;;
57087;SDS011;42965;52.846;6.614;2022-09-13T03:22:45;37.13;;;32.10;;
57087;SDS011;42965;52.846;6.614;2022-09-13T03:28:49;37.35;;;32.58;;
57087;SDS011;42965;52.846;6.614;2022-09-13T03:32:23;39.70;;;33.05;;
57087;SDS011;42965;52.846;6.614;2022-09-13T03:37:09;36.05;;;31.17;;
57087;SDS011;42965;52.846;6.614;2022-09-13T03:39:59;39.22;;;32.83;;
57087;SDS011;42965;52.846;6.614;2022-09-13T03:42:37;37.47;;;31.63;;
57087;SDS011;42965;52.846;6.614;2022-09-13T03:45:13;36.97;;;30.40;;
57087;SDS011;42965;52.846;6.614;2022-09-13T03:47:42;38.20;;;31.77;;
57087;SDS011;42965;52.846;6.614;2022-09-13T03:50:17;33.60;;;30.02;;
57087;SDS011;42965;52.846;6.614;2022-09-13T03:52:49;37.72;;;29.90;;
57087;SDS011;42965;52.846;6.614;2022-09-13T03:55:20;40.08;;;30.27;;
57087;SDS011;42965;52.846;6.614;2022-09-13T03:57:47;30.02;;;26.85;;
57087;SDS011;42965;52.846;6.614;2022-09-13T04:00:13;33.15;;;26.88;;
57087;SDS011;42965;52.846;6.614;2022-09-13T04:02:40;34.15;;;27.65;;
57087;SDS011;42965;52.846;6.614;2022-09-13T04:05:06;32.25;;;26.13;;
57087;SDS011;42965;52.846;6.614;2022-09-13T04:07:32;30.98;;;25.45;;
57087;SDS011;42965;52.846;6.614;2022-09-13T04:09:58;30.65;;;26.27;;
57087;SDS011;42965;52.846;6.614;2022-09-13T04:12:24;33.15;;;26.77;;
57087;SDS011;42965;52.846;6.614;2022-09-13T04:14:52;29.75;;;26.38;;
57087;SDS011;42965;52.846;6.614;2022-09-13T04:17:18;30.92;;;25.00;;
57087;SDS011;42965;52.846;6.614;2022-09-13T04:19:45;30.27;;;25.48;;
57087;SDS011;42965;52.846;6.614;2022-09-13T04:22:11;36.38;;;26.10;;
57087;SDS011;42965;52.846;6.614;2022-09-13T04:24:38;29.25;;;25.17;;
57087;SDS011;42965;52.846;6.614;2022-09-13T04:27:04;26.30;;;23.52;;
57087;SDS011;42965;52.846;6.614;2022-09-13T04:29:30;34.40;;;24.17;;
57087;SDS011;42965;52.846;6.614;2022-09-13T04:31:57;31.33;;;24.73;;
57087;SDS011;42965;52.846;6.614;2022-09-13T04:34:23;30.17;;;24.58;;
57087;SDS011;42965;52.846;6.614;2022-09-13T04:36:50;30.58;;;24.38;;
57087;SDS011;42965;52.846;6.614;2022-09-13T04:39:17;28.20;;;22.73;;
57087;SDS011;42965;52.846;6.614;2022-09-13T04:41:44;31.95;;;24.33;;
57087;SDS011;42965;52.846;6.614;2022-09-13T04:44:13;27.30;;;22.80;;
57087;SDS011;42965;52.846;6.614;2022-09-13T04:46:40;26.75;;;23.88;;
57087;SDS011;42965;52.846;6.614;2022-09-13T04:49:08;29.33;;;23.05;;
57087;SDS011;42965;52.846;6.614;2022-09-13T04:51:35;32.38;;;23.95;;
57087;SDS011;42965;52.846;6.614;2022-09-13T04:54:02;29.90;;;24.17;;
57087;SDS011;42965;52.846;6.614;2022-09-13T04:56:28;30.33;;;23.25;;
57087;SDS011;42965;52.846;6.614;2022-09-13T04:58:54;26.45;;;22.83;;
57087;SDS011;42965;52.846;6.614;2022-09-13T05:01:21;31.75;;;24.08;;
57087;SDS011;42965;52.846;6.614;2022-09-13T05:03:49;26.35;;;22.85;;
57087;SDS011;42965;52.846;6.614;2022-09-13T05:06:16;29.88;;;23.60;;
57087;SDS011;42965;52.846;6.614;2022-09-13T05:08:47;30.35;;;24.13;;
57087;SDS011;42965;52.846;6.614;2022-09-13T05:11:16;29.02;;;24.48;;
57087;SDS011;42965;52.846;6.614;2022-09-13T05:13:42;27.27;;;22.45;;
57087;SDS011;42965;52.846;6.614;2022-09-13T05:16:08;26.63;;;22.00;;
57087;SDS011;42965;52.846;6.614;2022-09-13T05:18:35;30.20;;;22.55;;
57087;SDS011;42965;52.846;6.614;2022-09-13T05:21:02;27.40;;;22.85;;
57087;SDS011;42965;52.846;6.614;2022-09-13T05:23:29;31.25;;;23.23;;
57087;SDS011;42965;52.846;6.614;2022-09-13T05:25:57;26.52;;;22.50;;
57087;SDS011;42965;52.846;6.614;2022-09-13T05:28:29;26.63;;;22.48;;
57087;SDS011;42965;52.846;6.614;2022-09-13T05:30:58;24.92;;;21.33;;
57087;SDS011;42965;52.846;6.614;2022-09-13T05:33:28;30.33;;;21.55;;
57087;SDS011;42965;52.846;6.614;2022-09-13T05:35:56;26.27;;;21.77;;
57087;SDS011;42965;52.846;6.614;2022-09-13T05:38:23;25.13;;;22.02;;
57087;SDS011;42965;52.846;6.614;2022-09-13T05:40:52;23.58;;;21.00;;
57087;SDS011;42965;52.846;6.614;2022-09-13T05:43:25;21.80;;;19.20;;
57087;SDS011;42965;52.846;6.614;2022-09-13T05:48:31;25.30;;;19.60;;
57087;SDS011;42965;52.846;6.614;2022-09-13T05:51:12;23.15;;;19.00;;
57087;SDS011;42965;52.846;6.614;2022-09-13T05:53:43;20.80;;;18.70;;
57087;SDS011;42965;52.846;6.614;2022-09-13T05:56:12;21.38;;;17.95;;
57087;SDS011;42965;52.846;6.614;2022-09-13T05:58:49;22.50;;;18.27;;
57087;SDS011;42965;52.846;6.614;2022-09-13T06:01:17;18.48;;;16.50;;
57087;SDS011;42965;52.846;6.614;2022-09-13T06:03:48;19.25;;;17.20;;
57087;SDS011;42965;52.846;6.614;2022-09-13T06:06:15;20.90;;;17.67;;
57087;SDS011;42965;52.846;6.614;2022-09-13T06:08:42;18.35;;;16.35;;
57087;SDS011;42965;52.846;6.614;2022-09-13T06:11:10;21.50;;;16.90;;
57087;SDS011;42965;52.846;6.614;2022-09-13T06:13:37;17.95;;;14.95;;
57087;SDS011;42965;52.846;6.614;2022-09-13T06:16:05;15.98;;;13.45;;
57087;SDS011;42965;52.846;6.614;2022-09-13T06:18:33;14.18;;;11.30;;
57087;SDS011;42965;52.846;6.614;2022-09-13T06:21:05;11.73;;;10.02;;
57087;SDS011;42965;52.846;6.614;2022-09-13T06:23:33;11.55;;;8.48;;
57087;SDS011;42965;52.846;6.614;2022-09-13T06:28:30;9.18;;;6.40;;
57087;SDS011;42965;52.846;6.614;2022-09-13T06:31:04;10.00;;;6.15;;
57087;SDS011;42965;52.846;6.614;2022-09-13T06:33:33;10.45;;;6.05;;
57087;SDS011;42965;52.846;6.614;2022-09-13T06:36:00;7.57;;;5.80;;
57087;SDS011;42965;52.846;6.614;2022-09-13T06:38:37;10.88;;;6.15;;
57087;SDS011;42965;52.846;6.614;2022-09-13T06:41:05;9.88;;;5.72;;
57087;SDS011;42965;52.846;6.614;2022-09-13T06:43:32;7.15;;;4.82;;
57087;SDS011;42965;52.846;6.614;2022-09-13T06:46:00;7.68;;;5.15;;
57087;SDS011;42965;52.846;6.614;2022-09-13T06:48:37;10.55;;;5.22;;
57087;SDS011;42965;52.846;6.614;2022-09-13T06:51:09;8.73;;;4.82;;
57087;SDS011;42965;52.846;6.614;2022-09-13T06:53:40;6.63;;;4.50;;
57087;SDS011;42965;52.846;6.614;2022-09-13T06:56:09;7.60;;;4.40;;
57087;SDS011;42965;52.846;6.614;2022-09-13T06:58:38;8.02;;;4.40;;
57087;SDS011;42965;52.846;6.614;2022-09-13T07:03:43;7.63;;;4.43;;
57087;SDS011;42965;52.846;6.614;2022-09-13T07:06:12;5.90;;;4.53;;
57087;SDS011;42965;52.846;6.614;2022-09-13T07:08:42;5.30;;;3.75;;
57087;SDS011;42965;52.846;6.614;2022-09-13T07:11:10;7.47;;;4.20;;
57087;SDS011;42965;52.846;6.614;2022-09-13T07:13:37;10.95;;;4.38;;
57087;SDS011;42965;52.846;6.614;2022-09-13T07:16:05;7.95;;;4.03;;
57087;SDS011;42965;52.846;6.614;2022-09-13T07:18:34;9.35;;;3.60;;
57087;SDS011;42965;52.846;6.614;2022-09-13T07:21:09;8.40;;;3.45;;
57087;SDS011;42965;52.846;6.614;2022-09-13T07:23:37;7.13;;;3.78;;
57087;SDS011;42965;52.846;6.614;2022-09-13T07:26:04;7.07;;;3.47;;
57087;SDS011;42965;52.846;6.614;2022-09-13T07:28:36;7.20;;;3.08;;
57087;SDS011;42965;52.846;6.614;2022-09-13T07:31:12;8.30;;;3.58;;
57087;SDS011;42965;52.846;6.614;2022-09-13T07:33:41;8.07;;;3.40;;
57087;SDS011;42965;52.846;6.614;2022-09-13T07:36:08;6.28;;;3.17;;
57087;SDS011;42965;52.846;6.614;2022-09-13T07:38:36;7.35;;;3.25;;
57087;SDS011;42965;52.846;6.614;2022-09-13T07:41:14;8.23;;;3.70;;
57087;SDS011;42965;52.846;6.614;2022-09-13T07:43:42;7.80;;;3.50;;
57087;SDS011;42965;52.846;6.614;2022-09-13T07:46:10;8.27;;;3.13;;
57087;SDS011;42965;52.846;6.614;2022-09-13T07:48:38;10.73;;;3.30;;
57087;SDS011;42965;52.846;6.614;2022-09-13T07:53:36;6.20;;;3.63;;
57087;SDS011;42965;52.846;6.614;2022-09-13T07:56:08;5.68;;;3.13;;
57087;SDS011;42965;52.846;6.614;2022-09-13T07:58:37;10.00;;;2.60;;
57087;SDS011;42965;52.846;6.614;2022-09-13T08:01:06;5.20;;;2.20;;
57087;SDS011;42965;52.846;6.614;2022-09-13T08:03:33;7.82;;;2.20;;
57087;SDS011;42965;52.846;6.614;2022-09-13T08:06:00;6.68;;;2.50;;
57087;SDS011;42965;52.846;6.614;2022-09-13T08:08:27;8.40;;;4.88;;
57087;SDS011;42965;52.846;6.614;2022-09-13T08:10:54;7.07;;;1.75;;
57087;SDS011;42965;52.846;6.614;2022-09-13T08:13:21;8.35;;;1.65;;
57087;SDS011;42965;52.846;6.614;2022-09-13T08:15:47;9.80;;;2.40;;
57087;SDS011;42965;52.846;6.614;2022-09-13T08:18:16;4.85;;;1.25;;
57087;SDS011;42965;52.846;6.614;2022-09-13T08:20:43;6.45;;;1.80;;
57087;SDS011;42965;52.846;6.614;2022-09-13T08:23:10;6.50;;;1.40;;
57087;SDS011;42965;52.846;6.614;2022-09-13T08:25:37;5.35;;;1.10;;
57087;SDS011;42965;52.846;6.614;2022-09-13T08:28:05;4.15;;;1.23;;
57087;SDS011;42965;52.846;6.614;2022-09-13T08:30:33;6.53;;;2.13;;
57087;SDS011;42965;52.846;6.614;2022-09-13T08:33:04;6.45;;;1.23;;
57087;SDS011;42965;52.846;6.614;2022-09-13T08:35:30;5.25;;;1.33;;
57087;SDS011;42965;52.846;6.614;2022-09-13T08:37:58;4.68;;;1.17;;
57087;SDS011;42965;52.846;6.614;2022-09-13T08:40:26;5.65;;;1.08;;
57087;SDS011;42965;52.846;6.614;2022-09-13T08:43:20;8.07;;;4.45;;
57087;SDS011;42965;52.846;6.614;2022-09-13T08:46:01;7.32;;;4.65;;
57087;SDS011;42965;52.846;6.614;2022-09-13T08:48:39;4.05;;;1.25;;
57087;SDS011;42965;52.846;6.614;2022-09-13T08:51:21;4.65;;;1.17;;
57087;SDS011;42965;52.846;6.614;2022-09-13T08:54:00;9.90;;;7.82;;
57087;SDS011;42965;52.846;6.614;2022-09-13T08:56:30;5.07;;;1.10;;
57087;SDS011;42965;52.846;6.614;2022-09-13T09:02:18;6.60;;;2.53;;
57087;SDS011;42965;52.846;6.614;2022-09-13T09:05:28;6.43;;;1.00;;
57087;SDS011;42965;52.846;6.614;2022-09-13T09:08:31;5.10;;;1.50;;
57087;SDS011;42965;52.846;6.614;2022-09-13T09:10:52;4.15;;;0.98;;
57087;SDS011;42965;52.846;6.614;2022-09-13T09:13:32;5.28;;;1.23;;
57087;SDS011;42965;52.846;6.614;2022-09-13T09:16:11;4.45;;;1.40;;
57087;SDS011;42965;52.846;6.614;2022-09-13T09:18:52;4.22;;;1.25;;
57087;SDS011;42965;52.846;6.614;2022-09-13T09:21:20;81.05;;;73.57;;
57087;SDS011;42965;52.846;6.614;2022-09-13T09:23:50;5.28;;;1.35;;
57087;SDS011;42965;52.846;6.614;2022-09-13T09:26:22;4.32;;;2.03;;
57087;SDS011;42965;52.846;6.614;2022-09-13T09:28:55;4.15;;;1.13;;
57087;SDS011;42965;52.846;6.614;2022-09-13T09:34:27;3.80;;;0.60;;
57087;SDS011;42965;52.846;6.614;2022-09-13T09:37:23;7.13;;;1.25;;
57087;SDS011;42965;52.846;6.614;2022-09-13T09:39:54;3.55;;;0.98;;
57087;SDS011;42965;52.846;6.614;2022-09-13T09:42:28;6.15;;;2.03;;
57087;SDS011;42965;52.846;6.614;2022-09-13T09:45:03;3.08;;;0.70;;
57087;SDS011;42965;52.846;6.614;2022-09-13T09:47:46;2.20;;;0.60;;
57087;SDS011;42965;52.846;6.614;2022-09-13T09:50:16;4.05;;;0.73;;
57087;SDS011;42965;52.846;6.614;2022-09-13T09:58:38;4.60;;;2.13;;
57087;SDS011;42965;52.846;6.614;2022-09-13T10:01:23;5.07;;;2.47;;
57087;SDS011;42965;52.846;6.614;2022-09-13T10:04:37;3.58;;;1.20;;
57087;SDS011;42965;52.846;6.614;2022-09-13T10:06:44;2.53;;;0.82;;
57087;SDS011;42965;52.846;6.614;2022-09-13T10:09:15;9.35;;;1.80;;
57087;SDS011;42965;52.846;6.614;2022-09-13T10:14:26;4.07;;;1.33;;
57087;SDS011;42965;52.846;6.614;2022-09-13T10:17:04;2.50;;;1.08;;
57087;SDS011;42965;52.846;6.614;2022-09-13T10:22:17;3.90;;;0.80;;
57087;SDS011;42965;52.846;6.614;2022-09-13T10:24:43;3.53;;;0.65;;
57087;SDS011;42965;52.846;6.614;2022-09-13T10:27:18;5.35;;;3.58;;
57087;SDS011;42965;52.846;6.614;2022-09-13T10:29:51;2.55;;;0.95;;
57087;SDS011;42965;52.846;6.614;2022-09-13T10:34:47;4.90;;;0.82;;
57087;SDS011;42965;52.846;6.614;2022-09-13T10:37:16;5.55;;;1.10;;
57087;SDS011;42965;52.846;6.614;2022-09-13T10:39:52;4.35;;;1.08;;
57087;SDS011;42965;52.846;6.614;2022-09-13T10:42:21;10.95;;;8.50;;
57087;SDS011;42965;52.846;6.614;2022-09-13T10:44:58;6.07;;;1.00;;
57087;SDS011;42965;52.846;6.614;2022-09-13T10:49:56;4.25;;;1.00;;
57087;SDS011;42965;52.846;6.614;2022-09-13T10:55:14;6.03;;;2.55;;
57087;SDS011;42965;52.846;6.614;2022-09-13T10:57:45;6.30;;;2.25;;
57087;SDS011;42965;52.846;6.614;2022-09-13T11:41:51;6.40;;;1.60;;
57087;SDS011;42965;52.846;6.614;2022-09-13T11:55:59;5.32;;;0.73;;
57087;SDS011;42965;52.846;6.614;2022-09-13T11:58:41;4.75;;;0.70;;
57087;SDS011;42965;52.846;6.614;2022-09-13T12:01:31;4.53;;;0.77;;
57087;SDS011;42965;52.846;6.614;2022-09-13T12:04:04;5.20;;;1.08;;
57087;SDS011;42965;52.846;6.614;2022-09-13T12:06:39;2.15;;;0.70;;
57087;SDS011;42965;52.846;6.614;2022-09-13T12:11:45;7.03;;;1.15;;
57087;SDS011;42965;52.846;6.614;2022-09-13T12:14:18;7.60;;;5.10;;
57087;SDS011;42965;52.846;6.614;2022-09-13T12:16:49;6.72;;;3.28;;
57087;SDS011;42965;52.846;6.614;2022-09-13T12:19:28;8.48;;;4.38;;
57087;SDS011;42965;52.846;6.614;2022-09-13T12:22:12;8.07;;;3.80;;
57087;SDS011;42965;52.846;6.614;2022-09-13T12:24:41;8.27;;;6.03;;
57087;SDS011;42965;52.846;6.614;2022-09-13T12:27:11;5.97;;;1.70;;
57087;SDS011;42965;52.846;6.614;2022-09-13T12:30:08;4.65;;;0.90;;
57087;SDS011;42965;52.846;6.614;2022-09-13T12:32:41;7.22;;;1.73;;
57087;SDS011;42965;52.846;6.614;2022-09-13T12:35:16;5.90;;;2.85;;
57087;SDS011;42965;52.846;6.614;2022-09-13T12:46:31;6.80;;;1.58;;
57087;SDS011;42965;52.846;6.614;2022-09-13T12:49:07;4.38;;;1.35;;
57087;SDS011;42965;52.846;6.614;2022-09-13T13:00:34;6.60;;;2.53;;
57087;SDS011;42965;52.846;6.614;2022-09-13T13:03:12;7.57;;;3.30;;
57087;SDS011;42965;52.846;6.614;2022-09-13T13:05:45;3.35;;;0.70;;
57087;SDS011;42965;52.846;6.614;2022-09-13T13:11:01;5.82;;;1.13;;
57087;SDS011;42965;52.846;6.614;2022-09-13T13:13:36;7.75;;;3.88;;
57087;SDS011;42965;52.846;6.614;2022-09-13T13:18:59;6.28;;;1.17;;
57087;SDS011;42965;52.846;6.614;2022-09-13T13:21:31;7.00;;;5.43;;
57087;SDS011;42965;52.846;6.614;2022-09-13T13:29:19;7.30;;;6.50;;
57087;SDS011;42965;52.846;6.614;2022-09-13T13:39:45;5.10;;;0.77;;
57087;SDS011;42965;52.846;6.614;2022-09-13T13:49:51;4.53;;;1.00;;
57087;SDS011;42965;52.846;6.614;2022-09-13T13:52:38;9.15;;;7.32;;
57087;SDS011;42965;52.846;6.614;2022-09-13T13:58:02;5.07;;;0.90;;
57087;SDS011;42965;52.846;6.614;2022-09-13T14:00:29;3.45;;;1.05;;
57087;SDS011;42965;52.846;6.614;2022-09-13T14:03:05;4.05;;;1.08;;
57087;SDS011;42965;52.846;6.614;2022-09-13T14:08:59;6.88;;;3.92;;
57087;SDS011;42965;52.846;6.614;2022-09-13T14:21:31;6.15;;;0.80;;
57087;SDS011;42965;52.846;6.614;2022-09-13T14:24:33;4.75;;;1.30;;
57087;SDS011;42965;52.846;6.614;2022-09-13T14:26:51;11.90;;;10.40;;
57087;SDS011;42965;52.846;6.614;2022-09-13T14:29:22;11.63;;;8.55;;
57087;SDS011;42965;52.846;6.614;2022-09-13T14:31:51;5.05;;;1.25;;
57087;SDS011;42965;52.846;6.614;2022-09-13T14:34:34;4.35;;;0.90;;
57087;SDS011;42965;52.846;6.614;2022-09-13T14:37:04;4.35;;;1.52;;
57087;SDS011;42965;52.846;6.614;2022-09-13T14:39:52;6.60;;;1.15;;
57087;SDS011;42965;52.846;6.614;2022-09-13T14:42:22;5.50;;;0.93;;
57087;SDS011;42965;52.846;6.614;2022-09-13T14:44:48;4.03;;;0.88;;
57087;SDS011;42965;52.846;6.614;2022-09-13T14:47:32;8.27;;;5.47;;
57087;SDS011;42965;52.846;6.614;2022-09-13T14:50:15;8.15;;;1.80;;
57087;SDS011;42965;52.846;6.614;2022-09-13T14:53:03;21.92;;;18.50;;
57087;SDS011;42965;52.846;6.614;2022-09-13T14:55:36;8.98;;;4.90;;
57087;SDS011;42965;52.846;6.614;2022-09-13T14:58:06;8.38;;;3.80;;
57087;SDS011;42965;52.846;6.614;2022-09-13T15:00:51;5.50;;;1.17;;
57087;SDS011;42965;52.846;6.614;2022-09-13T15:03:22;6.40;;;1.98;;
57087;SDS011;42965;52.846;6.614;2022-09-13T15:05:53;13.52;;;9.05;;
57087;SDS011;42965;52.846;6.614;2022-09-13T15:11:06;3.92;;;1.40;;
57087;SDS011;42965;52.846;6.614;2022-09-13T15:13:37;5.55;;;1.13;;
57087;SDS011;42965;52.846;6.614;2022-09-13T15:21:48;6.43;;;1.90;;
57087;SDS011;42965;52.846;6.614;2022-09-13T15:24:25;5.95;;;1.30;;
57087;SDS011;42965;52.846;6.614;2022-09-13T15:27:03;4.63;;;0.90;;
57087;SDS011;42965;52.846;6.614;2022-09-13T15:29:31;5.45;;;1.00;;
57087;SDS011;42965;52.846;6.614;2022-09-13T15:32:03;20.23;;;13.88;;
57087;SDS011;42965;52.846;6.614;2022-09-13T15:34:31;10.40;;;3.88;;
57087;SDS011;42965;52.846;6.614;2022-09-13T15:37:01;5.88;;;2.08;;
57087;SDS011;42965;52.846;6.614;2022-09-13T15:39:44;9.27;;;2.25;;
57087;SDS011;42965;52.846;6.614;2022-09-13T15:42:15;5.85;;;2.05;;
57087;SDS011;42965;52.846;6.614;2022-09-13T15:44:42;7.45;;;2.28;;
57087;SDS011;42965;52.846;6.614;2022-09-13T15:47:09;5.65;;;1.48;;
57087;SDS011;42965;52.846;6.614;2022-09-13T15:49:40;15.05;;;11.45;;
57087;SDS011;42965;52.846;6.614;2022-09-13T15:52:13;5.30;;;1.00;;
57087;SDS011;42965;52.846;6.614;2022-09-13T15:54:40;10.35;;;2.05;;
57087;SDS011;42965;52.846;6.614;2022-09-13T15:57:07;11.07;;;5.25;;
57087;SDS011;42965;52.846;6.614;2022-09-13T15:59:40;4.88;;;1.10;;
57087;SDS011;42965;52.846;6.614;2022-09-13T16:02:22;8.07;;;2.65;;
57087;SDS011;42965;52.846;6.614;2022-09-13T16:04:50;8.60;;;1.95;;
57087;SDS011;42965;52.846;6.614;2022-09-13T16:07:17;8.18;;;3.33;;
57087;SDS011;42965;52.846;6.614;2022-09-13T16:09:43;5.20;;;1.30;;
57087;SDS011;42965;52.846;6.614;2022-09-13T16:12:10;5.78;;;1.20;;
57087;SDS011;42965;52.846;6.614;2022-09-13T16:14:36;6.97;;;1.33;;
57087;SDS011;42965;52.846;6.614;2022-09-13T16:17:04;8.38;;;1.52;;
57087;SDS011;42965;52.846;6.614;2022-09-13T16:19:34;6.65;;;1.20;;
57087;SDS011;42965;52.846;6.614;2022-09-13T16:22:01;5.10;;;1.30;;
57087;SDS011;42965;52.846;6.614;2022-09-13T16:24:27;7.70;;;1.85;;
57087;SDS011;42965;52.846;6.614;2022-09-13T16:26:53;10.25;;;1.42;;
57087;SDS011;42965;52.846;6.614;2022-09-13T16:29:20;4.47;;;0.98;;
57087;SDS011;42965;52.846;6.614;2022-09-13T16:31:46;11.98;;;1.35;;
57087;SDS011;42965;52.846;6.614;2022-09-13T16:34:12;8.88;;;1.23;;
57087;SDS011;42965;52.846;6.614;2022-09-13T16:36:38;5.95;;;1.30;;
57087;SDS011;42965;52.846;6.614;2022-09-13T16:39:04;45.90;;;39.58;;
57087;SDS011;42965;52.846;6.614;2022-09-13T16:41:30;14.93;;;9.27;;
57087;SDS011;42965;52.846;6.614;2022-09-13T16:43:56;6.13;;;1.52;;
57087;SDS011;42965;52.846;6.614;2022-09-13T16:46:22;7.90;;;1.75;;
57087;SDS011;42965;52.846;6.614;2022-09-13T16:48:52;5.18;;;1.20;;
57087;SDS011;42965;52.846;6.614;2022-09-13T16:51:19;21.67;;;15.45;;
57087;SDS011;42965;52.846;6.614;2022-09-13T16:53:47;7.60;;;1.70;;
57087;SDS011;42965;52.846;6.614;2022-09-13T16:56:17;7.65;;;1.50;;
57087;SDS011;42965;52.846;6.614;2022-09-13T16:58:46;4.22;;;1.30;;
57087;SDS011;42965;52.846;6.614;2022-09-13T17:01:14;8.02;;;2.25;;
57087;SDS011;42965;52.846;6.614;2022-09-13T17:03:41;3.60;;;1.20;;
57087;SDS011;42965;52.846;6.614;2022-09-13T17:06:11;57.33;;;51.47;;
57087;SDS011;42965;52.846;6.614;2022-09-13T17:08:39;7.22;;;2.65;;
57087;SDS011;42965;52.846;6.614;2022-09-13T17:11:09;13.15;;;4.35;;
57087;SDS011;42965;52.846;6.614;2022-09-13T17:13:37;9.10;;;1.52;;
57087;SDS011;42965;52.846;6.614;2022-09-13T17:16:06;9.88;;;1.45;;
57087;SDS011;42965;52.846;6.614;2022-09-13T17:18:44;5.25;;;1.27;;
57087;SDS011;42965;52.846;6.614;2022-09-13T17:21:10;6.82;;;1.40;;
57087;SDS011;42965;52.846;6.614;2022-09-13T17:23:36;5.88;;;1.20;;
57087;SDS011;42965;52.846;6.614;2022-09-13T17:26:03;6.88;;;1.25;;
57087;SDS011;42965;52.846;6.614;2022-09-13T17:28:29;4.40;;;1.02;;
57087;SDS011;42965;52.846;6.614;2022-09-13T17:30:55;6.28;;;1.60;;
57087;SDS011;42965;52.846;6.614;2022-09-13T17:33:21;7.32;;;1.33;;
57087;SDS011;42965;52.846;6.614;2022-09-13T17:35:56;4.97;;;1.35;;
57087;SDS011;42965;52.846;6.614;2022-09-13T17:38:23;5.32;;;1.30;;
57087;SDS011;42965;52.846;6.614;2022-09-13T17:41:03;6.75;;;1.63;;
57087;SDS011;42965;52.846;6.614;2022-09-13T17:43:40;7.10;;;1.33;;
57087;SDS011;42965;52.846;6.614;2022-09-13T17:46:09;7.55;;;1.13;;
57087;SDS011;42965;52.846;6.614;2022-09-13T17:48:40;6.97;;;1.38;;
57087;SDS011;42965;52.846;6.614;2022-09-13T17:51:11;5.53;;;1.23;;
57087;SDS011;42965;52.846;6.614;2022-09-13T17:53:39;6.10;;;0.93;;
57087;SDS011;42965;52.846;6.614;2022-09-13T17:56:07;9.63;;;1.23;;
57087;SDS011;42965;52.846;6.614;2022-09-13T17:58:34;6.20;;;1.77;;
57087;SDS011;42965;52.846;6.614;2022-09-13T18:01:05;10.13;;;1.45;;
57087;SDS011;42965;52.846;6.614;2022-09-13T18:03:32;7.72;;;1.50;;
57087;SDS011;42965;52.846;6.614;2022-09-13T18:06:01;11.45;;;1.25;;
57087;SDS011;42965;52.846;6.614;2022-09-13T18:08:29;7.18;;;1.35;;
57087;SDS011;42965;52.846;6.614;2022-09-13T18:11:03;8.70;;;1.40;;
57087;SDS011;42965;52.846;6.614;2022-09-13T18:13:33;7.53;;;1.42;;
57087;SDS011;42965;52.846;6.614;2022-09-13T18:16:00;3.42;;;0.88;;
57087;SDS011;42965;52.846;6.614;2022-09-13T18:18:30;8.23;;;1.75;;
57087;SDS011;42965;52.846;6.614;2022-09-13T18:20:59;5.80;;;1.40;;
57087;SDS011;42965;52.846;6.614;2022-09-13T18:23:26;6.90;;;1.70;;
57087;SDS011;42965;52.846;6.614;2022-09-13T18:25:56;9.52;;;1.52;;
57087;SDS011;42965;52.846;6.614;2022-09-13T18:28:27;8.63;;;1.70;;
57087;SDS011;42965;52.846;6.614;2022-09-13T18:30:57;6.22;;;1.48;;
57087;SDS011;42965;52.846;6.614;2022-09-13T18:33:26;6.70;;;1.60;;
57087;SDS011;42965;52.846;6.614;2022-09-13T18:36:00;6.40;;;1.50;;
57087;SDS011;42965;52.846;6.614;2022-09-13T18:38:27;6.80;;;1.73;;
57087;SDS011;42965;52.846;6.614;2022-09-13T18:41:12;7.18;;;1.75;;
57087;SDS011;42965;52.846;6.614;2022-09-13T18:43:42;8.80;;;2.63;;
57087;SDS011;42965;52.846;6.614;2022-09-13T18:46:11;5.43;;;1.50;;
57087;SDS011;42965;52.846;6.614;2022-09-13T18:48:39;4.22;;;1.02;;
57087;SDS011;42965;52.846;6.614;2022-09-13T18:51:08;6.55;;;1.30;;
57087;SDS011;42965;52.846;6.614;2022-09-13T18:53:36;6.35;;;1.55;;